Time;durP1;ratioP1;P1;durP2;ratioP2;P2;SDS_P1;SDS_P2;PMS_P1;PMS_P2;Temp;Humidity;BMP_temperature;BMP_pressure;BME280_temperature;BME280_humidity;BME280_pressure;Samples;Min_cycle;Max_cycle;Signal;HPM_P1;HPM_P2
2022/07/25 00:00:12;;;;;;;12.55;11.25;;;;;;;18.31;74.36;96018.94;2072282;28;20057;-41
2022/07/25 00:01:13;;;;;;;13.65;11.68;;;;;;;18.29;74.53;96019.06;2057285;28;20046;-40
2022/07/25 00:02:15;;;;;;;13.32;10.68;;;;;;;18.28;74.65;96020.03;2057183;28;20070;-38
2022/07/25 00:03:16;;;;;;;11.88;10.68;;;;;;;18.26;74.75;96021.94;2049555;28;20051;-39
2022/07/25 00:04:17;;;;;;;15.00;11.45;;;;;;;18.25;74.03;96016.78;2057561;28;20109;-39
2022/07/25 00:05:18;;;;;;;12.93;11.63;;;;;;;18.23;74.28;96019.53;2066056;28;20058;-38
2022/07/25 00:06:20;;;;;;;12.88;11.43;;;;;;;18.22;74.93;96014.38;2065228;28;20057;-39
2022/07/25 00:07:21;;;;;;;14.07;11.32;;;;;;;18.19;75.11;96020.72;2057265;28;20167;-38
2022/07/25 00:08:22;;;;;;;17.02;11.75;;;;;;;18.19;74.86;96017.25;2064885;28;20057;-38
2022/07/25 00:09:23;;;;;;;16.50;11.57;;;;;;;18.18;74.46;96021.69;2049590;28;20039;-38
2022/07/25 00:10:24;;;;;;;12.55;11.25;;;;;;;18.17;74.50;96017.38;2048898;28;20468;-39
2022/07/25 00:11:26;;;;;;;12.95;10.65;;;;;;;18.16;74.41;96018.31;2065172;28;20054;-41
2022/07/25 00:12:27;;;;;;;17.70;12.02;;;;;;;18.16;73.98;96020.13;2072363;28;20046;-38
2022/07/25 00:13:28;;;;;;;14.75;11.68;;;;;;;18.13;73.93;96015.94;2072928;28;20411;-37
2022/07/25 00:14:29;;;;;;;15.05;11.75;;;;;;;18.11;73.68;96014.38;2065347;28;20054;-37
2022/07/25 00:15:30;;;;;;;14.15;11.80;;;;;;;18.10;73.82;96020.59;2057531;28;20128;-40
2022/07/25 00:16:31;;;;;;;15.55;11.98;;;;;;;18.08;74.16;96010.19;2057167;28;20512;-38
2022/07/25 00:17:33;;;;;;;15.43;11.88;;;;;;;18.06;74.59;96009.47;2073480;28;20042;-38
2022/07/25 00:18:34;;;;;;;14.20;12.10;;;;;;;18.03;74.73;96012.34;2064553;28;20042;-41
2022/07/25 00:19:35;;;;;;;15.32;11.38;;;;;;;18.01;74.82;96012.44;2049345;28;20453;-38
2022/07/25 00:20:36;;;;;;;17.02;12.02;;;;;;;17.99;74.79;96010.88;2065287;28;20050;-39
2022/07/25 00:21:38;;;;;;;15.52;13.07;;;;;;;17.96;74.53;96014.63;2072892;28;20041;-37
2022/07/25 00:22:39;;;;;;;13.60;12.13;;;;;;;17.94;74.89;96010.44;2048942;29;20043;-38
2022/07/25 00:23:40;;;;;;;15.85;12.55;;;;;;;17.91;75.91;96008.88;2048843;28;20722;-37
2022/07/25 00:24:41;;;;;;;15.30;11.82;;;;;;;17.88;75.59;96019.59;2056841;28;20050;-38
2022/07/25 00:25:42;;;;;;;14.52;12.50;;;;;;;17.88;75.64;96008.25;2064612;28;20042;-40
2022/07/25 00:26:44;;;;;;;14.88;12.80;;;;;;;17.85;75.99;96015.44;2056478;28;20057;-39
2022/07/25 00:27:45;;;;;;;13.88;11.63;;;;;;;17.83;75.46;96012.09;2049023;28;20051;-38
2022/07/25 00:28:46;;;;;;;19.38;12.52;;;;;;;17.80;76.03;96012.31;2064654;28;20085;-40
2022/07/25 00:29:47;;;;;;;15.82;11.77;;;;;;;17.78;75.94;96013.34;2061090;28;20054;-38
2022/07/25 00:30:49;;;;;;;15.18;12.30;;;;;;;17.78;76.24;96022.06;2056893;28;20054;-40
2022/07/25 00:31:50;;;;;;;17.15;13.05;;;;;;;17.74;76.26;96014.53;2072256;28;20467;-42
2022/07/25 00:32:51;;;;;;;16.13;12.35;;;;;;;17.71;76.45;96010.34;2081032;28;20053;-38
2022/07/25 00:33:52;;;;;;;14.18;12.65;;;;;;;17.70;76.59;96010.47;2065095;28;20050;-39
2022/07/25 00:34:53;;;;;;;14.77;12.65;;;;;;;17.68;76.50;96013.19;2065659;28;20401;-38
2022/07/25 00:35:55;;;;;;;13.30;11.93;;;;;;;17.68;76.57;96012.38;2064713;28;20050;-40
2022/07/25 00:36:56;;;;;;;14.13;12.07;;;;;;;17.67;76.57;96010.69;2056900;28;20054;-35
2022/07/25 00:37:57;;;;;;;15.55;12.27;;;;;;;17.65;76.36;96013.44;2056911;28;20054;-40
2022/07/25 00:38:58;;;;;;;14.77;12.02;;;;;;;17.62;75.91;96011.03;2056644;28;20057;-38
2022/07/25 00:39:59;;;;;;;17.90;12.45;;;;;;;17.60;76.66;96007.69;2056660;28;20055;-38
2022/07/25 00:41:02;;;;;;;16.30;12.57;;;;;;;17.60;76.44;96013.78;2056748;28;20051;-37
2022/07/25 00:42:03;;;;;;;14.07;12.63;;;;;;;17.58;76.73;96013.03;2065016;28;20053;-41
2022/07/25 00:43:04;;;;;;;15.05;12.18;;;;;;;17.57;76.51;96011.38;2056693;28;20047;-36
2022/07/25 00:44:05;;;;;;;16.00;12.82;;;;;;;17.55;76.16;96007.19;2056853;28;20434;-38
2022/07/25 00:45:07;;;;;;;15.32;12.60;;;;;;;17.54;76.47;96016.03;2064629;28;20050;-38
2022/07/25 00:46:12;;;;;;;13.93;11.98;;;;;;;17.53;76.70;96011.72;2056950;28;20046;-38
2022/07/25 00:47:13;;;;;;;15.27;12.68;;;;;;;17.52;76.68;96007.44;2058025;28;20054;-39
2022/07/25 00:48:14;;;;;;;15.45;13.48;;;;;;;17.53;76.25;96012.53;2065294;28;20054;-37
2022/07/25 00:49:16;;;;;;;14.20;12.68;;;;;;;17.52;76.82;96007.44;2073224;28;20511;-39
2022/07/25 00:50:17;;;;;;;14.18;12.40;;;;;;;17.51;76.90;96010.97;2072785;28;20050;-37
2022/07/25 00:51:18;;;;;;;14.77;12.88;;;;;;;17.51;77.30;96013.59;2065263;28;20058;-39
2022/07/25 00:52:19;;;;;;;14.20;12.43;;;;;;;17.49;76.03;96008.50;2048791;28;20047;-39
2022/07/25 00:53:21;;;;;;;14.90;13.10;;;;;;;17.50;77.15;96009.31;2057172;28;20070;-38
2022/07/25 00:54:22;;;;;;;14.57;12.80;;;;;;;17.46;76.29;96013.97;2064913;28;20042;-36
2022/07/25 00:55:24;;;;;;;15.45;12.07;;;;;;;17.48;76.34;96011.22;2064788;28;20054;-40
2022/07/25 00:56:25;;;;;;;15.40;13.27;;;;;;;17.46;76.54;96006.09;2056714;28;20529;-38
2022/07/25 00:57:26;;;;;;;16.05;13.07;;;;;;;17.45;77.73;96007.03;2065050;28;20500;-38
2022/07/25 00:58:28;;;;;;;15.55;13.32;;;;;;;17.42;77.10;96008.09;2048991;28;20552;-40
2022/07/25 00:59:30;;;;;;;16.15;13.05;;;;;;;17.42;77.46;96007.25;2057480;28;20587;-40
2022/07/25 01:00:31;;;;;;;14.95;13.45;;;;;;;17.38;77.81;95996.16;2064219;28;20038;-37
2022/07/25 01:01:32;;;;;;;14.93;12.30;;;;;;;17.39;77.67;96003.06;2057118;28;20054;-40
2022/07/25 01:02:33;;;;;;;14.77;13.27;;;;;;;17.36;77.27;96000.69;2064131;28;20042;-39
2022/07/25 01:03:34;;;;;;;16.83;13.65;;;;;;;17.34;77.54;96001.75;2072230;28;20052;-40
2022/07/25 01:04:35;;;;;;;15.45;13.15;;;;;;;17.31;77.86;96002.81;2064402;28;20042;-39
2022/07/25 01:05:37;;;;;;;14.75;12.98;;;;;;;17.31;77.99;95994.94;2073051;28;20056;-39
2022/07/25 01:06:38;;;;;;;14.48;12.98;;;;;;;17.29;78.21;95999.47;2056787;28;20065;-41
2022/07/25 01:07:39;;;;;;;14.25;12.68;;;;;;;17.31;77.94;95994.09;2040924;28;20059;-37
2022/07/25 01:08:40;;;;;;;16.17;13.52;;;;;;;17.29;78.10;95996.00;2033630;28;20514;-40
2022/07/25 01:09:42;;;;;;;17.42;13.43;;;;;;;17.26;77.97;95999.69;2048750;28;20043;-38
2022/07/25 01:10:44;;;;;;;16.23;13.48;;;;;;;17.24;77.67;95993.75;2064043;28;20444;-38
2022/07/25 01:11:46;;;;;;;14.75;12.95;;;;;;;17.25;77.72;95994.56;2072699;28;20041;-37
2022/07/25 01:12:48;;;;;;;14.15;12.73;;;;;;;17.25;78.52;95994.56;2072890;28;20084;-37
2022/07/25 01:13:50;;;;;;;16.30;13.25;;;;;;;17.29;77.92;95990.75;2072531;28;20057;-37
2022/07/25 01:14:51;;;;;;;16.20;13.43;;;;;;;17.26;78.82;95989.19;2080433;28;20045;-39
2022/07/25 01:15:52;;;;;;;16.90;13.57;;;;;;;17.25;79.20;95987.53;2072555;28;20053;-37
2022/07/25 01:16:53;;;;;;;15.82;13.30;;;;;;;17.25;78.11;95986.69;2058339;28;20050;-38
2022/07/25 01:17:55;;;;;;;15.65;12.52;;;;;;;17.24;78.18;95985.00;2056573;28;20533;-40
2022/07/25 01:18:56;;;;;;;14.85;13.13;;;;;;;17.22;79.10;95986.94;2064609;28;20046;-40
2022/07/25 01:19:57;;;;;;;17.92;13.93;;;;;;;17.23;78.59;95983.34;2040745;29;20047;-39
2022/07/25 01:20:59;;;;;;;17.38;13.85;;;;;;;17.21;78.25;95986.06;2048717;28;20568;-37
2022/07/25 01:22:00;;;;;;;16.27;13.68;;;;;;;17.20;78.42;95982.59;2064073;28;20544;-39
2022/07/25 01:23:02;;;;;;;16.10;13.63;;;;;;;17.19;78.42;95978.31;2064479;28;20428;-39
2022/07/25 01:24:04;;;;;;;16.38;13.13;;;;;;;17.17;78.47;95982.84;2072065;28;20053;-40
2022/07/25 01:25:05;;;;;;;17.88;13.40;;;;;;;17.17;79.08;95985.47;2049058;29;20124;-40
2022/07/25 01:26:07;;;;;;;15.30;13.68;;;;;;;17.15;78.97;95979.47;2056937;28;20034;-38
2022/07/25 01:27:08;;;;;;;15.20;13.60;;;;;;;17.15;79.49;95984.72;2072684;28;20046;-38
2022/07/25 01:28:09;;;;;;;17.38;14.35;;;;;;;17.16;79.79;95986.44;2056560;28;20543;-40
2022/07/25 01:29:10;;;;;;;15.07;13.52;;;;;;;17.12;79.51;95977.09;2049345;28;20059;-37
2022/07/25 01:30:12;;;;;;;15.50;13.60;;;;;;;17.13;79.74;95977.94;2056282;28;20106;-39
2022/07/25 01:31:13;;;;;;;15.52;13.48;;;;;;;17.11;80.19;95978.06;2056625;28;20042;-38
2022/07/25 01:32:15;;;;;;;16.80;13.50;;;;;;;17.10;80.09;95976.34;2063726;28;20054;-39
2022/07/25 01:33:17;;;;;;;19.90;13.40;;;;;;;17.11;79.60;95974.59;2048495;28;20505;-36
2022/07/25 01:34:18;;;;;;;16.17;14.43;;;;;;;17.09;80.07;95977.31;2056397;28;20401;-38
2022/07/25 01:35:19;;;;;;;15.52;13.80;;;;;;;17.08;80.29;95970.41;2056744;28;20061;-37
2022/07/25 01:36:20;;;;;;;16.45;14.70;;;;;;;17.06;79.73;95972.31;2064249;28;20066;-37
2022/07/25 01:37:21;;;;;;;18.15;15.02;;;;;;;17.05;79.70;95967.16;2056639;28;20046;-40
2022/07/25 01:38:23;;;;;;;17.02;14.52;;;;;;;17.03;80.41;95972.53;2040802;28;20576;-37
2022/07/25 01:39:24;;;;;;;17.77;13.52;;;;;;;17.02;80.18;95967.38;2056180;28;20054;-39
2022/07/25 01:40:25;;;;;;;15.32;13.73;;;;;;;17.01;80.64;95966.56;2064215;28;20046;-37
2022/07/25 01:41:26;;;;;;;18.08;14.25;;;;;;;17.01;79.81;95966.56;2064578;28;20439;-38
2022/07/25 01:42:27;;;;;;;18.20;14.05;;;;;;;17.00;80.47;95966.66;2055692;28;20086;-37
2022/07/25 01:43:29;;;;;;;15.20;13.70;;;;;;;16.99;81.08;95973.69;2056413;28;20054;-38
2022/07/25 01:44:30;;;;;;;16.25;14.15;;;;;;;16.97;81.01;95960.72;2055180;28;20559;-40
2022/07/25 01:45:31;;;;;;;15.57;13.93;;;;;;;16.97;80.46;95960.72;2056409;28;20532;-37
2022/07/25 01:46:32;;;;;;;16.25;14.63;;;;;;;16.96;81.32;95963.44;2048143;29;20046;-39
2022/07/25 01:47:33;;;;;;;16.85;14.52;;;;;;;16.94;81.02;95960.91;2056334;28;20043;-37
2022/07/25 01:48:34;;;;;;;16.77;14.13;;;;;;;16.94;80.95;95965.31;2064020;28;20042;-39
2022/07/25 01:49:36;;;;;;;16.20;14.50;;;;;;;16.92;81.53;95970.69;2048291;28;20043;-38
2022/07/25 01:50:37;;;;;;;18.65;14.45;;;;;;;16.93;81.02;95966.28;2064479;28;20042;-37
2022/07/25 01:51:38;;;;;;;16.05;14.30;;;;;;;16.90;81.59;95969.13;2064154;28;20042;-39
2022/07/25 01:52:39;;;;;;;17.02;15.05;;;;;;;16.88;81.37;95961.38;2048078;29;20047;-38
2022/07/25 01:53:40;;;;;;;16.20;14.30;;;;;;;16.88;81.69;95957.91;2048272;28;20051;-40
2022/07/25 01:54:42;;;;;;;17.95;14.57;;;;;;;16.86;81.46;95959.78;2048434;28;20501;-38
2022/07/25 01:55:44;;;;;;;18.70;14.90;;;;;;;16.86;81.47;95965.03;2049007;28;20054;-38
2022/07/25 01:56:46;;;;;;;16.55;14.70;;;;;;;16.84;81.73;95965.19;2063716;28;20053;-38
2022/07/25 01:57:47;;;;;;;17.70;14.23;;;;;;;16.82;81.52;95964.44;2056317;28;20429;-40
2022/07/25 01:58:48;;;;;;;17.98;13.90;;;;;;;16.81;81.16;95965.38;2048417;28;20046;-37
2022/07/25 01:59:49;;;;;;;15.43;13.82;;;;;;;16.81;81.82;95968.00;2047796;28;20047;-39
2022/07/25 02:00:50;;;;;;;18.05;14.32;;;;;;;16.80;81.51;95962.88;2048573;28;20051;-41
2022/07/25 02:01:53;;;;;;;17.33;15.10;;;;;;;16.79;81.72;95969.91;2056665;28;20061;-39
2022/07/25 02:04:15;;;;;;;15.57;13.98;;;;;;;16.78;81.81;95964.75;2056320;28;20058;-37
2022/07/25 02:05:16;;;;;;;16.70;14.32;;;;;;;16.75;81.39;95958.75;2064018;28;20540;-40
2022/07/25 02:06:18;;;;;;;20.48;14.68;;;;;;;16.76;81.53;95957.81;2056423;28;20049;-38
2022/07/25 02:07:19;;;;;;;20.05;15.55;;;;;;;16.76;81.25;95962.25;2063650;28;20054;-40
2022/07/25 02:08:20;;;;;;;18.48;14.43;;;;;;;16.73;81.38;95952.81;2064066;28;20065;-39
2022/07/25 02:09:21;;;;;;;19.27;14.95;;;;;;;16.72;81.05;95950.28;2064444;28;20050;-35
2022/07/25 02:10:23;;;;;;;16.27;14.55;;;;;;;16.74;81.33;95951.03;2064323;28;20535;-38
2022/07/25 02:11:24;;;;;;;15.88;14.23;;;;;;;16.72;81.44;95951.13;2064040;28;20050;-37
2022/07/25 02:12:25;;;;;;;16.40;13.98;;;;;;;16.71;81.34;95949.44;2056643;28;20069;-39
2022/07/25 02:13:27;;;;;;;16.23;14.10;;;;;;;16.71;81.05;95957.31;2063623;28;20046;-38
2022/07/25 02:14:28;;;;;;;16.42;14.23;;;;;;;16.72;81.77;95953.75;2072611;28;20036;-39
2022/07/25 02:15:29;;;;;;;15.57;13.88;;;;;;;16.71;81.61;95953.88;2064362;28;20046;-40
2022/07/25 02:16:30;;;;;;;15.48;13.88;;;;;;;16.69;81.79;95951.34;2048155;28;20042;-39
2022/07/25 02:17:32;;;;;;;17.50;15.27;;;;;;;16.68;81.69;95954.06;2056141;28;20055;-40
2022/07/25 02:18:33;;;;;;;16.15;14.45;;;;;;;16.71;81.22;95951.25;2056075;28;20547;-37
2022/07/25 02:19:35;;;;;;;15.95;13.77;;;;;;;16.68;81.48;95954.06;2039941;28;20047;-41
2022/07/25 02:20:46;;;;;;;17.52;14.35;;;;;;;16.68;81.48;95949.69;2050736;28;20035;-36
2022/07/25 02:21:47;;;;;;;18.13;14.30;;;;;;;16.65;81.70;95955.16;2056266;28;20054;-43
2022/07/25 02:22:49;;;;;;;18.17;15.07;;;;;;;16.64;81.68;95950.84;2047568;29;20043;-42
2022/07/25 02:23:50;;;;;;;18.05;14.93;;;;;;;16.64;81.67;95952.63;2040152;29;20051;-41
2022/07/25 02:24:51;;;;;;;17.20;14.25;;;;;;;16.64;81.36;95950.00;2040193;29;20059;-42
2022/07/25 02:25:52;;;;;;;16.60;14.60;;;;;;;16.64;81.93;95942.13;2040294;29;20055;-42
2022/07/25 02:26:53;;;;;;;16.60;14.00;;;;;;;16.65;81.49;95944.66;2047992;29;20058;-42
2022/07/25 02:27:55;;;;;;;17.25;14.95;;;;;;;16.64;81.90;95942.13;2048286;29;20043;-42
2022/07/25 02:28:56;;;;;;;15.45;13.85;;;;;;;16.63;81.79;95943.94;2055586;28;20043;-43
2022/07/25 02:29:57;;;;;;;16.38;14.73;;;;;;;16.63;82.22;95945.72;2053457;28;20058;-41
2022/07/25 02:30:58;;;;;;;17.00;14.13;;;;;;;16.62;82.20;95949.28;2055916;28;20055;-43
2022/07/25 02:31:59;;;;;;;16.92;14.55;;;;;;;16.61;82.42;95940.56;2063639;28;20532;-42
2022/07/25 02:33:01;;;;;;;14.93;13.48;;;;;;;16.61;82.45;95948.44;2056137;28;20050;-38
2022/07/25 02:34:02;;;;;;;17.70;14.85;;;;;;;16.62;82.76;95949.28;2055618;28;20046;-45
2022/07/25 02:35:05;;;;;;;17.95;15.20;;;;;;;16.61;82.08;95948.44;2048136;28;20062;-44
2022/07/25 02:36:07;;;;;;;18.30;15.43;;;;;;;16.62;81.77;95944.03;2040556;29;20055;-43
2022/07/25 02:37:08;;;;;;;19.20;15.85;;;;;;;16.61;82.57;95947.59;2032578;29;20059;-45
2022/07/25 02:38:09;;;;;;;16.88;15.07;;;;;;;16.62;82.09;95944.03;2024643;29;20161;-42
2022/07/25 02:39:11;;;;;;;20.60;15.13;;;;;;;16.62;81.94;95946.66;2040196;28;20055;-41
2022/07/25 02:40:12;;;;;;;19.10;16.08;;;;;;;16.61;82.20;95942.38;2047794;29;20055;-42
2022/07/25 02:41:13;;;;;;;18.42;15.43;;;;;;;16.61;82.11;95935.34;2032476;29;20059;-43
2022/07/25 02:42:14;;;;;;;16.63;14.90;;;;;;;16.60;82.07;95945.91;2040204;29;20036;-45
2022/07/25 02:43:16;;;;;;;17.83;15.68;;;;;;;16.62;82.30;95937.00;2048465;28;20047;-42
2022/07/25 02:44:17;;;;;;;16.92;15.07;;;;;;;16.60;82.28;95936.28;2056213;28;20551;-42
2022/07/25 02:45:18;;;;;;;19.23;15.57;;;;;;;16.61;82.42;95937.94;2055978;28;20613;-45
2022/07/25 02:46:19;;;;;;;18.77;15.27;;;;;;;16.62;81.53;95936.16;2048397;28;20544;-42
2022/07/25 02:47:21;;;;;;;18.17;15.40;;;;;;;16.62;81.93;95936.16;2048524;28;20054;-44
2022/07/25 02:48:22;;;;;;;16.70;15.00;;;;;;;16.65;80.89;95935.94;2055640;28;20493;-40
2022/07/25 02:49:23;;;;;;;18.60;14.88;;;;;;;16.65;80.90;95934.19;2040405;29;20094;-41
2022/07/25 02:50:24;;;;;;;16.40;14.80;;;;;;;16.66;80.99;95932.38;2040699;28;20054;-42
2022/07/25 02:51:26;;;;;;;16.40;14.68;;;;;;;16.66;81.43;95941.09;2045580;29;20436;-42
2022/07/25 02:52:27;;;;;;;16.42;14.75;;;;;;;16.65;81.43;95939.41;2047185;28;20039;-39
2022/07/25 02:53:28;;;;;;;18.10;15.18;;;;;;;16.63;81.36;95936.06;2048239;29;20050;-41
2022/07/25 02:54:30;;;;;;;17.10;14.60;;;;;;;16.62;81.10;95925.69;2040563;29;20055;-43
2022/07/25 02:55:31;;;;;;;18.20;15.45;;;;;;;16.63;80.38;95930.00;2039897;29;20040;-44
2022/07/25 02:56:32;;;;;;;20.52;15.27;;;;;;;16.62;80.49;95928.28;2037801;29;20052;-42
2022/07/25 02:57:33;;;;;;;18.52;15.27;;;;;;;16.62;81.19;95930.91;2041926;29;20040;-41
2022/07/25 02:58:34;;;;;;;18.67;15.32;;;;;;;16.62;81.24;95923.06;2034315;29;20075;-42
2022/07/25 02:59:36;;;;;;;18.08;15.55;;;;;;;16.59;81.02;95924.09;2041874;29;20521;-43
2022/07/25 03:00:37;;;;;;;17.23;15.38;;;;;;;16.58;81.77;95934.72;2041532;29;20056;-42
2022/07/25 03:01:38;;;;;;;17.88;15.98;;;;;;;16.58;81.66;95929.47;2057693;28;20045;-41
2022/07/25 03:02:39;;;;;;;17.73;15.82;;;;;;;16.59;80.99;95928.53;2056816;28;20054;-45
2022/07/25 03:03:40;;;;;;;17.50;15.68;;;;;;;16.56;82.06;95929.59;2049400;29;20544;-42
2022/07/25 03:04:42;;;;;;;19.38;15.80;;;;;;;16.54;80.83;95927.09;2057179;28;20532;-43
2022/07/25 03:05:43;;;;;;;17.45;15.60;;;;;;;16.55;80.96;95930.53;2057074;28;20539;-42
2022/07/25 03:06:44;;;;;;;16.60;14.57;;;;;;;16.54;82.21;95932.34;2057362;28;20073;-40
2022/07/25 03:07:45;;;;;;;17.98;15.25;;;;;;;16.54;81.51;95919.22;2049827;29;20051;-42
2022/07/25 03:08:46;;;;;;;18.27;14.98;;;;;;;16.54;81.33;95927.09;2041713;29;20124;-41
2022/07/25 03:09:48;;;;;;;15.88;14.10;;;;;;;16.54;81.19;95928.84;2057245;28;20065;-44
2022/07/25 03:10:49;;;;;;;17.83;15.93;;;;;;;16.53;81.35;95922.78;2049193;28;20058;-41
2022/07/25 03:11:50;;;;;;;18.40;16.33;;;;;;;16.54;81.42;95931.47;2049231;29;20046;-42
2022/07/25 03:12:52;;;;;;;18.27;15.32;;;;;;;16.56;81.10;95926.13;2049310;29;20050;-44
2022/07/25 03:13:53;;;;;;;18.25;14.10;;;;;;;16.54;81.80;95927.09;2056999;28;20440;-42
2022/07/25 03:14:55;;;;;;;17.58;14.75;;;;;;;16.53;81.39;95930.63;2056669;28;20050;-41
2022/07/25 03:15:56;;;;;;;18.08;15.88;;;;;;;16.53;81.57;95922.78;2049178;28;20547;-44
2022/07/25 03:16:57;;;;;;;17.38;15.57;;;;;;;16.49;81.90;95929.19;2057391;28;20051;-42
2022/07/25 03:17:58;;;;;;;16.92;15.18;;;;;;;16.46;82.22;95928.56;2050298;28;20051;-44
2022/07/25 03:18:59;;;;;;;18.00;16.17;;;;;;;16.44;82.08;95933.06;2049140;29;20058;-41
2022/07/25 03:20:00;;;;;;;18.75;15.95;;;;;;;16.42;82.15;95932.38;2041622;29;20043;-42
2022/07/25 03:21:02;;;;;;;17.92;16.02;;;;;;;16.43;82.20;95931.41;2041481;29;20071;-41
2022/07/25 03:22:03;;;;;;;18.15;15.88;;;;;;;16.45;83.05;95932.97;2041310;29;20047;-42
2022/07/25 03:23:04;;;;;;;18.15;16.23;;;;;;;16.42;82.70;95922.72;2049853;28;20050;-43
2022/07/25 03:24:05;;;;;;;18.30;15.60;;;;;;;16.42;82.61;95933.19;2049185;29;20452;-41
2022/07/25 03:25:07;;;;;;;19.15;17.17;;;;;;;16.43;82.58;95934.03;2049124;29;20055;-41
2022/07/25 03:26:08;;;;;;;16.60;14.88;;;;;;;16.41;82.96;95928.91;2026015;29;20052;-41
2022/07/25 03:27:09;;;;;;;17.60;14.95;;;;;;;16.40;83.61;95935.09;2034255;29;20055;-42
2022/07/25 03:28:10;;;;;;;19.92;16.13;;;;;;;16.42;82.20;95929.75;2041796;29;20063;-41
2022/07/25 03:29:12;;;;;;;18.67;14.75;;;;;;;16.42;82.50;95930.56;2041501;29;20056;-40
2022/07/25 03:30:13;;;;;;;17.58;15.65;;;;;;;16.45;82.97;95924.28;2056963;28;20579;-42
2022/07/25 03:31:14;;;;;;;18.15;15.07;;;;;;;16.43;83.21;95929.63;2057436;28;20046;-42
2022/07/25 03:32:15;;;;;;;16.88;14.98;;;;;;;16.45;82.14;95922.50;2041353;29;20061;-43
2022/07/25 03:33:16;;;;;;;17.77;15.75;;;;;;;16.48;82.72;95924.88;2041645;28;20541;-40
2022/07/25 03:34:18;;;;;;;17.95;16.05;;;;;;;16.50;82.35;95925.63;2041429;29;20055;-42
2022/07/25 03:35:19;;;;;;;18.08;16.02;;;;;;;16.52;82.26;95923.72;2033599;29;20560;-45
2022/07/25 03:36:20;;;;;;;18.05;15.65;;;;;;;16.53;82.45;95920.16;2049212;28;20055;-41
2022/07/25 03:37:21;;;;;;;18.13;15.85;;;;;;;16.55;83.07;95925.28;2057606;28;20511;-42
2022/07/25 03:38:23;;;;;;;19.20;16.73;;;;;;;16.51;82.58;95919.41;2049400;29;20496;-38
2022/07/25 03:39:26;;;;;;;20.58;16.33;;;;;;;16.52;82.56;95925.53;2049565;28;20051;-42
2022/07/25 03:40:27;;;;;;;17.85;15.95;;;;;;;16.53;83.17;95930.63;2056917;28;20051;-43
2022/07/25 03:41:28;;;;;;;18.77;16.70;;;;;;;16.51;83.01;95922.03;2048754;29;20043;-41
2022/07/25 03:42:30;;;;;;;19.67;16.60;;;;;;;16.51;83.26;95922.03;2024761;29;20049;-42
2022/07/25 03:43:31;;;;;;;19.33;16.33;;;;;;;16.52;82.91;95923.72;2026195;29;20059;-44
2022/07/25 03:44:32;;;;;;;18.73;16.30;;;;;;;16.54;83.07;95920.97;2041696;29;20433;-41
2022/07/25 03:45:33;;;;;;;19.75;17.40;;;;;;;16.54;83.16;95924.47;2049037;28;20509;-40
2022/07/25 03:46:35;;;;;;;19.23;17.02;;;;;;;16.53;83.04;95922.78;2049046;29;20047;-41
2022/07/25 03:47:36;;;;;;;19.50;17.58;;;;;;;16.57;83.41;95917.31;2049151;29;20047;-43
2022/07/25 03:48:37;;;;;;;18.08;16.27;;;;;;;16.59;83.20;95918.03;2049310;29;20058;-41
2022/07/25 03:49:38;;;;;;;18.42;16.48;;;;;;;16.64;82.96;95921.16;2049557;29;20051;-39
2022/07/25 03:50:39;;;;;;;19.48;17.40;;;;;;;16.66;83.43;95924.53;2057115;28;20102;-45
2022/07/25 03:51:41;;;;;;;18.83;16.85;;;;;;;16.66;82.88;95914.03;2050188;28;20417;-42
2022/07/25 03:52:42;;;;;;;18.92;16.98;;;;;;;16.65;83.35;95921.06;2056954;28;20437;-41
2022/07/25 03:55:06;;;;;;;19.73;17.70;;;;;;;16.69;83.01;95913.81;2044084;29;20108;-41
2022/07/25 03:56:07;;;;;;;19.55;17.45;;;;;;;16.66;83.31;95917.47;2052299;28;20055;-42
2022/07/25 03:57:09;;;;;;;19.88;16.67;;;;;;;16.67;82.88;95918.31;2041428;29;20063;-42
2022/07/25 03:58:11;;;;;;;19.15;16.83;;;;;;;16.69;83.39;95919.06;2041543;29;20434;-42
2022/07/25 03:59:14;;;;;;;19.27;16.88;;;;;;;16.69;83.13;95913.81;2048874;29;20055;-42
2022/07/25 04:00:16;;;;;;;19.65;17.65;;;;;;;16.69;83.14;95912.00;2056847;28;20054;-41
2022/07/25 04:01:17;;;;;;;19.05;16.92;;;;;;;16.70;82.52;95910.22;2056522;28;20051;-41
2022/07/25 04:02:18;;;;;;;19.15;17.15;;;;;;;16.71;83.32;95910.13;2040629;29;20051;-42
2022/07/25 04:03:20;;;;;;;18.05;16.13;;;;;;;16.72;83.04;95917.03;2025941;29;20549;-41
2022/07/25 04:04:21;;;;;;;22.40;18.75;;;;;;;16.70;83.11;95916.28;2049412;28;20047;-42
2022/07/25 04:05:22;;;;;;;18.92;16.92;;;;;;;16.71;83.64;95918.00;2064245;28;20547;-44
2022/07/25 04:06:23;;;;;;;19.98;16.92;;;;;;;16.70;82.84;95915.47;2041220;29;20048;-41
2022/07/25 04:07:24;;;;;;;21.55;16.63;;;;;;;16.71;83.04;95917.16;2040402;28;20047;-43
2022/07/25 04:08:26;;;;;;;19.75;17.75;;;;;;;16.72;83.83;95913.56;2048921;29;20534;-41
2022/07/25 04:09:27;;;;;;;20.38;18.02;;;;;;;16.72;83.54;95911.78;2040960;29;20055;-41
2022/07/25 04:10:28;;;;;;;19.48;17.45;;;;;;;16.75;82.81;95913.34;2041293;29;20050;-44
2022/07/25 04:11:29;;;;;;;18.98;16.92;;;;;;;16.78;82.62;95909.69;2048797;28;20441;-42
2022/07/25 04:12:31;;;;;;;19.83;16.85;;;;;;;16.79;82.79;95912.22;2048946;28;20062;-42
2022/07/25 04:13:32;;;;;;;19.92;17.08;;;;;;;16.80;82.33;95913.88;2049254;28;20086;-45
2022/07/25 04:14:33;;;;;;;20.35;17.15;;;;;;;16.80;82.72;95905.19;2056973;28;20042;-40
2022/07/25 04:15:35;;;;;;;19.63;17.00;;;;;;;16.80;82.61;95906.00;2057140;28;20537;-45
2022/07/25 04:16:36;;;;;;;17.95;16.15;;;;;;;16.83;82.17;95907.56;2056811;28;20050;-42
2022/07/25 04:17:37;;;;;;;20.38;15.90;;;;;;;16.83;82.42;95905.78;2056105;28;20049;-42
2022/07/25 04:18:39;;;;;;;18.35;16.45;;;;;;;16.84;82.10;95911.88;2057266;28;20053;-43
2022/07/25 04:19:40;;;;;;;20.75;17.17;;;;;;;16.84;82.21;95915.34;2056753;28;20050;-41
2022/07/25 04:20:41;;;;;;;18.05;16.08;;;;;;;16.87;81.63;95909.88;2049226;29;20430;-42
2022/07/25 04:21:42;;;;;;;18.13;16.23;;;;;;;16.87;82.91;95907.25;2048728;29;20059;-42
2022/07/25 04:22:44;;;;;;;18.95;16.33;;;;;;;16.87;82.06;95909.88;2048992;29;20039;-42
2022/07/25 04:23:45;;;;;;;19.33;17.13;;;;;;;16.89;82.28;95909.75;2048174;29;20047;-44
2022/07/25 04:24:46;;;;;;;19.33;16.75;;;;;;;16.93;81.77;95916.44;2041166;29;20067;-40
2022/07/25 04:25:47;;;;;;;18.77;16.77;;;;;;;16.95;81.24;95911.94;2056644;28;20533;-43
2022/07/25 04:26:49;;;;;;;19.20;16.65;;;;;;;17.03;81.82;95908.75;2048478;29;20054;-42
2022/07/25 04:27:50;;;;;;;23.08;16.42;;;;;;;17.12;81.23;95910.66;2040953;29;20047;-41
2022/07/25 04:28:51;;;;;;;19.27;17.33;;;;;;;17.14;80.41;95909.59;2049303;28;20054;-44
2022/07/25 04:29:52;;;;;;;22.00;17.48;;;;;;;17.10;80.47;95912.56;2054262;28;20064;-42
2022/07/25 04:30:54;;;;;;;18.92;16.75;;;;;;;17.09;80.84;95911.72;2057223;28;20058;-42
2022/07/25 04:31:55;;;;;;;20.65;17.20;;;;;;;17.09;80.76;95909.09;2048647;29;20055;-46
2022/07/25 04:32:56;;;;;;;18.33;16.40;;;;;;;17.15;80.82;95918.31;2056704;28;20062;-42
2022/07/25 04:33:57;;;;;;;19.52;17.52;;;;;;;17.16;80.54;95909.47;2056732;28;20413;-44
2022/07/25 04:34:59;;;;;;;22.23;17.17;;;;;;;17.16;80.91;95902.47;2056970;28;20046;-42
2022/07/25 04:36:00;;;;;;;18.50;16.00;;;;;;;17.22;80.83;95908.22;2048960;29;20054;-44
2022/07/25 04:37:01;;;;;;;17.88;15.75;;;;;;;17.21;81.16;95909.97;2048437;28;20055;-42
2022/07/25 04:38:02;;;;;;;20.65;17.15;;;;;;;17.28;80.57;95911.19;2040331;29;20055;-40
2022/07/25 04:39:04;;;;;;;21.30;18.45;;;;;;;17.30;80.31;95893.53;2048327;28;20066;-44
2022/07/25 04:40:05;;;;;;;18.83;16.92;;;;;;;17.37;80.62;95899.16;2056458;28;20050;-41
2022/07/25 04:41:06;;;;;;;20.27;17.60;;;;;;;17.38;79.54;95901.69;2056825;28;20058;-42
2022/07/25 04:42:07;;;;;;;19.65;16.77;;;;;;;17.38;80.62;95893.81;2064727;28;20057;-44
2022/07/25 04:43:09;;;;;;;19.02;16.98;;;;;;;17.45;80.64;95895.94;2056651;28;20054;-43
2022/07/25 04:44:10;;;;;;;20.70;18.50;;;;;;;17.48;80.17;95898.34;2049354;28;20532;-44